Airfield :
LOGIN :

Register | Disclaimer

   EN    FR    IT 

 










Legend :    VFR   Marginal VFR   IFR   Intensive IFR   Very Intensive IFR
Visi :
Ceiling :
>= 8 km
>= 3000ft
5 to 8 km
1000 to 3000 ft
1500m to 5 km
500 to 1000 ft
800 to 1500m
200 to 500 ft
< 800m
< 200 ft
Symbols :   Thunderstorms  Fog  Heavy snow  Heavy precipitations  Wind > 20 kt
SIGMETs :     Misc.  Thunderstorms  Icing  Turbulence  Mountain Waves  Volcanic Ashes






- Airport Elevation : 584 ft


LFPV - Villacoublay Vélizy

CURRENT METAR :
  • 271600Z AUTO 32020G38KT 9999 BKN031/// BKN042/// OVC048/// 06/00 Q1005 TEMPO 31015G28KT

EXPIRED METARs :
  • 271530Z AUTO 31022G35KT 9999 FEW022/// BKN027/// OVC035/// 07/02 Q1004 NOSIG
  • 271500Z AUTO 31021G37KT 280V350 9999 BKN024/// BKN031/// OVC037/// 06/02 Q1002 TEMPO 31032G42KT
  • 271430Z AUTO 31025KT 9999 BKN023/// OVC029/// 06/02 Q1000 TEMPO 31015G28KT
  • 271400Z AUTO 31022G33KT 9999 BKN022 OVC031 06/03 Q0999 NOSIG
  • 271330Z AUTO 31027G41KT 9999 BKN022 OVC028 07/03 Q0996 BECMG 32015G30KT
  • 271300Z AUTO 31031G48KT 9999 FEW015 BKN022 OVC027 07/03 Q0994 BECMG 32015G30KT

TAF TAF LFPV
Valid from the 27 at 15:00 until the 28 at 15:00 UTC


271400Z 2715/2815 31028KT 9999 BKN022
TEMPO 2715/2716 31032G42KT
BECMG 2716/2717 31015KT
TEMPO 2716/2719 31015G28KT
BECMG 2719/2720 27005KT
BECMG 2806/2808 17010KT
TEMPO 2810/2815 17010G25KT
BECMG 2813/2814 BKN009
TEMPO 2814/2815 BKN004



MET'MAP, your aeronautical weather chart ! - Copyright ORBIFLY December 2007 - Disclaimer

ORBIFLY MET'MAP TEAM :

Programming & Development : Alexandra Zaïnal
Concept & original design : Baudouin d'Aumeries
Assistance for programming : Marc-Olivier Méhu
Technical & hardware support : Manuel Goepfert

Contact : metmap@orbifly.com




SOURCES & CREDITS :

   NOAA